sensor_id;sensor_type;location;lat;lon;timestamp;temperature;humidity
31733;DHT22;18312;51.486;7.144;2023-04-25T00:00:08;6.40;99.90
31733;DHT22;18312;51.486;7.144;2023-04-25T00:02:35;6.50;99.90
31733;DHT22;18312;51.486;7.144;2023-04-25T00:05:03;6.50;99.90
31733;DHT22;18312;51.486;7.144;2023-04-25T00:07:30;6.50;99.90
31733;DHT22;18312;51.486;7.144;2023-04-25T00:09:57;6.60;99.90
31733;DHT22;18312;51.486;7.144;2023-04-25T00:12:24;6.60;99.90
31733;DHT22;18312;51.486;7.144;2023-04-25T00:14:53;6.60;99.90
31733;DHT22;18312;51.486;7.144;2023-04-25T00:17:22;6.60;99.90
31733;DHT22;18312;51.486;7.144;2023-04-25T00:19:49;6.60;99.90
31733;DHT22;18312;51.486;7.144;2023-04-25T00:22:17;6.60;99.90
31733;DHT22;18312;51.486;7.144;2023-04-25T00:24:44;6.60;99.90
31733;DHT22;18312;51.486;7.144;2023-04-25T00:27:10;6.60;99.90
31733;DHT22;18312;51.486;7.144;2023-04-25T00:29:37;6.60;99.90
31733;DHT22;18312;51.486;7.144;2023-04-25T00:32:04;6.60;99.90
31733;DHT22;18312;51.486;7.144;2023-04-25T00:34:30;6.70;99.90
31733;DHT22;18312;51.486;7.144;2023-04-25T00:36:57;6.70;99.90
31733;DHT22;18312;51.486;7.144;2023-04-25T00:39:25;6.70;99.90
31733;DHT22;18312;51.486;7.144;2023-04-25T00:41:51;6.70;99.90
31733;DHT22;18312;51.486;7.144;2023-04-25T00:44:19;6.70;99.90
31733;DHT22;18312;51.486;7.144;2023-04-25T00:46:46;6.70;99.90
31733;DHT22;18312;51.486;7.144;2023-04-25T00:49:13;6.80;99.90
31733;DHT22;18312;51.486;7.144;2023-04-25T00:51:42;6.70;99.90
31733;DHT22;18312;51.486;7.144;2023-04-25T00:54:09;6.80;99.90
31733;DHT22;18312;51.486;7.144;2023-04-25T00:56:37;6.80;99.90
31733;DHT22;18312;51.486;7.144;2023-04-25T00:59:04;6.80;99.90
31733;DHT22;18312;51.486;7.144;2023-04-25T01:01:30;6.80;99.90
31733;DHT22;18312;51.486;7.144;2023-04-25T01:03:58;6.80;99.90
31733;DHT22;18312;51.486;7.144;2023-04-25T01:06:25;6.80;99.90
31733;DHT22;18312;51.486;7.144;2023-04-25T01:08:52;6.80;99.90
31733;DHT22;18312;51.486;7.144;2023-04-25T01:11:19;6.80;99.90
31733;DHT22;18312;51.486;7.144;2023-04-25T01:13:47;6.80;99.90
31733;DHT22;18312;51.486;7.144;2023-04-25T01:16:14;6.80;99.90
31733;DHT22;18312;51.486;7.144;2023-04-25T01:18:41;6.80;99.90
31733;DHT22;18312;51.486;7.144;2023-04-25T01:21:09;6.80;99.90
31733;DHT22;18312;51.486;7.144;2023-04-25T01:23:36;6.80;99.90
31733;DHT22;18312;51.486;7.144;2023-04-25T01:26:03;6.80;99.90
31733;DHT22;18312;51.486;7.144;2023-04-25T01:28:30;6.80;99.90
31733;DHT22;18312;51.486;7.144;2023-04-25T01:30:57;6.80;99.90
31733;DHT22;18312;51.486;7.144;2023-04-25T01:33:23;6.80;99.90
31733;DHT22;18312;51.486;7.144;2023-04-25T01:35:50;6.80;99.90
31733;DHT22;18312;51.486;7.144;2023-04-25T01:38:18;6.80;99.90
31733;DHT22;18312;51.486;7.144;2023-04-25T01:40:45;6.80;99.90
31733;DHT22;18312;51.486;7.144;2023-04-25T01:43:12;6.80;99.90
31733;DHT22;18312;51.486;7.144;2023-04-25T01:45:39;6.80;99.90
31733;DHT22;18312;51.486;7.144;2023-04-25T01:48:06;6.70;99.90
31733;DHT22;18312;51.486;7.144;2023-04-25T01:50:33;6.80;99.90
31733;DHT22;18312;51.486;7.144;2023-04-25T01:53:00;6.70;99.90
31733;DHT22;18312;51.486;7.144;2023-04-25T01:55:28;6.70;99.90
31733;DHT22;18312;51.486;7.144;2023-04-25T01:57:55;6.70;99.90
31733;DHT22;18312;51.486;7.144;2023-04-25T02:00:22;6.70;99.90
31733;DHT22;18312;51.486;7.144;2023-04-25T02:02:49;6.70;99.90
31733;DHT22;18312;51.486;7.144;2023-04-25T02:05:16;6.60;99.90
31733;DHT22;18312;51.486;7.144;2023-04-25T02:07:42;6.70;99.90
31733;DHT22;18312;51.486;7.144;2023-04-25T02:10:09;6.70;99.90
31733;DHT22;18312;51.486;7.144;2023-04-25T02:12:37;6.70;99.90
31733;DHT22;18312;51.486;7.144;2023-04-25T02:15:05;6.70;99.90
31733;DHT22;18312;51.486;7.144;2023-04-25T02:17:32;6.60;99.90
31733;DHT22;18312;51.486;7.144;2023-04-25T02:19:58;6.70;99.90
31733;DHT22;18312;51.486;7.144;2023-04-25T02:22:25;6.70;99.90
31733;DHT22;18312;51.486;7.144;2023-04-25T02:24:55;6.70;99.90
31733;DHT22;18312;51.486;7.144;2023-04-25T02:27:22;6.70;99.90
31733;DHT22;18312;51.486;7.144;2023-04-25T02:29:50;6.70;99.90
31733;DHT22;18312;51.486;7.144;2023-04-25T02:32:17;6.70;99.90
31733;DHT22;18312;51.486;7.144;2023-04-25T02:34:44;6.70;99.90
31733;DHT22;18312;51.486;7.144;2023-04-25T02:37:10;6.70;99.90
31733;DHT22;18312;51.486;7.144;2023-04-25T02:39:37;6.70;99.90
31733;DHT22;18312;51.486;7.144;2023-04-25T02:42:03;6.70;99.90
31733;DHT22;18312;51.486;7.144;2023-04-25T02:44:30;6.70;99.90
31733;DHT22;18312;51.486;7.144;2023-04-25T02:46:58;6.70;99.90
31733;DHT22;18312;51.486;7.144;2023-04-25T02:49:24;6.70;99.90
31733;DHT22;18312;51.486;7.144;2023-04-25T02:51:51;6.60;99.90
31733;DHT22;18312;51.486;7.144;2023-04-25T02:54:17;6.50;99.90
31733;DHT22;18312;51.486;7.144;2023-04-25T02:56:44;6.50;99.90
31733;DHT22;18312;51.486;7.144;2023-04-25T02:59:11;6.40;99.90
31733;DHT22;18312;51.486;7.144;2023-04-25T03:01:37;6.40;99.90
31733;DHT22;18312;51.486;7.144;2023-04-25T03:04:05;6.40;99.90
31733;DHT22;18312;51.486;7.144;2023-04-25T03:06:32;6.40;99.90
31733;DHT22;18312;51.486;7.144;2023-04-25T03:08:58;6.40;99.90
31733;DHT22;18312;51.486;7.144;2023-04-25T03:11:25;6.30;99.90
31733;DHT22;18312;51.486;7.144;2023-04-25T03:13:51;6.40;99.90
31733;DHT22;18312;51.486;7.144;2023-04-25T03:16:18;6.40;99.90
31733;DHT22;18312;51.486;7.144;2023-04-25T03:18:45;6.40;99.90
31733;DHT22;18312;51.486;7.144;2023-04-25T03:21:12;6.40;99.90
31733;DHT22;18312;51.486;7.144;2023-04-25T03:23:39;6.40;99.90
31733;DHT22;18312;51.486;7.144;2023-04-25T03:26:06;6.40;99.90
31733;DHT22;18312;51.486;7.144;2023-04-25T03:28:32;6.30;99.90
31733;DHT22;18312;51.486;7.144;2023-04-25T03:30:59;6.30;99.90
31733;DHT22;18312;51.486;7.144;2023-04-25T03:33:26;6.30;99.90
31733;DHT22;18312;51.486;7.144;2023-04-25T03:35:52;6.30;99.90
31733;DHT22;18312;51.486;7.144;2023-04-25T03:38:20;6.30;99.90
31733;DHT22;18312;51.486;7.144;2023-04-25T03:40:47;6.30;99.90
31733;DHT22;18312;51.486;7.144;2023-04-25T03:43:13;6.30;99.90
31733;DHT22;18312;51.486;7.144;2023-04-25T03:45:40;6.30;99.90
31733;DHT22;18312;51.486;7.144;2023-04-25T03:48:07;6.30;99.90
31733;DHT22;18312;51.486;7.144;2023-04-25T03:50:33;6.30;99.90
31733;DHT22;18312;51.486;7.144;2023-04-25T03:53:00;6.30;99.90
31733;DHT22;18312;51.486;7.144;2023-04-25T03:55:28;6.30;99.90
31733;DHT22;18312;51.486;7.144;2023-04-25T03:57:54;6.30;99.90
31733;DHT22;18312;51.486;7.144;2023-04-25T04:00:22;6.30;99.90
31733;DHT22;18312;51.486;7.144;2023-04-25T04:02:48;6.30;99.90
31733;DHT22;18312;51.486;7.144;2023-04-25T04:05:15;6.30;99.90
31733;DHT22;18312;51.486;7.144;2023-04-25T04:07:41;6.30;99.90
31733;DHT22;18312;51.486;7.144;2023-04-25T04:10:08;6.10;99.90
31733;DHT22;18312;51.486;7.144;2023-04-25T04:12:36;6.00;99.90
31733;DHT22;18312;51.486;7.144;2023-04-25T04:15:03;5.80;99.90
31733;DHT22;18312;51.486;7.144;2023-04-25T04:17:31;5.80;99.90
31733;DHT22;18312;51.486;7.144;2023-04-25T04:19:57;5.70;99.90
31733;DHT22;18312;51.486;7.144;2023-04-25T04:22:24;5.60;99.90
31733;DHT22;18312;51.486;7.144;2023-04-25T04:24:50;5.50;99.90
31733;DHT22;18312;51.486;7.144;2023-04-25T04:27:17;5.30;99.90
31733;DHT22;18312;51.486;7.144;2023-04-25T04:29:45;5.30;99.90
31733;DHT22;18312;51.486;7.144;2023-04-25T04:32:12;5.20;99.90
31733;DHT22;18312;51.486;7.144;2023-04-25T04:34:39;5.30;99.90
31733;DHT22;18312;51.486;7.144;2023-04-25T04:37:06;5.20;99.90
31733;DHT22;18312;51.486;7.144;2023-04-25T04:39:33;5.30;99.90
31733;DHT22;18312;51.486;7.144;2023-04-25T04:41:59;5.20;99.90
31733;DHT22;18312;51.486;7.144;2023-04-25T04:44:27;5.20;99.90
31733;DHT22;18312;51.486;7.144;2023-04-25T04:46:55;5.20;99.90
31733;DHT22;18312;51.486;7.144;2023-04-25T04:49:21;5.10;99.90
31733;DHT22;18312;51.486;7.144;2023-04-25T04:51:48;5.20;99.90
31733;DHT22;18312;51.486;7.144;2023-04-25T04:54:14;5.10;99.90
31733;DHT22;18312;51.486;7.144;2023-04-25T04:56:41;5.10;99.90
31733;DHT22;18312;51.486;7.144;2023-04-25T04:59:08;5.10;99.90
31733;DHT22;18312;51.486;7.144;2023-04-25T05:01:34;5.10;99.90
31733;DHT22;18312;51.486;7.144;2023-04-25T05:04:02;5.20;99.90
31733;DHT22;18312;51.486;7.144;2023-04-25T05:06:29;5.10;99.90
31733;DHT22;18312;51.486;7.144;2023-04-25T05:08:56;5.20;99.90
31733;DHT22;18312;51.486;7.144;2023-04-25T05:11:23;5.20;99.90
31733;DHT22;18312;51.486;7.144;2023-04-25T05:13:50;5.30;99.90
31733;DHT22;18312;51.486;7.144;2023-04-25T05:16:17;5.40;99.90
31733;DHT22;18312;51.486;7.144;2023-04-25T05:18:44;5.50;99.90
31733;DHT22;18312;51.486;7.144;2023-04-25T05:21:12;5.60;99.90
31733;DHT22;18312;51.486;7.144;2023-04-25T05:23:38;5.70;99.90
31733;DHT22;18312;51.486;7.144;2023-04-25T05:26:05;5.80;99.90
31733;DHT22;18312;51.486;7.144;2023-04-25T05:28:38;5.90;99.90
31733;DHT22;18312;51.486;7.144;2023-04-25T05:31:05;6.00;99.90
31733;DHT22;18312;51.486;7.144;2023-04-25T05:33:32;6.00;99.90
31733;DHT22;18312;51.486;7.144;2023-04-25T05:35:58;6.10;99.90
31733;DHT22;18312;51.486;7.144;2023-04-25T05:38:26;6.20;99.90
31733;DHT22;18312;51.486;7.144;2023-04-25T05:40:53;6.30;99.90
31733;DHT22;18312;51.486;7.144;2023-04-25T05:43:20;6.30;99.90
31733;DHT22;18312;51.486;7.144;2023-04-25T05:45:46;6.30;99.90
31733;DHT22;18312;51.486;7.144;2023-04-25T05:48:13;6.50;99.90
31733;DHT22;18312;51.486;7.144;2023-04-25T05:50:39;6.60;99.90
31733;DHT22;18312;51.486;7.144;2023-04-25T05:53:06;6.50;99.90
31733;DHT22;18312;51.486;7.144;2023-04-25T05:55:34;6.50;99.90
31733;DHT22;18312;51.486;7.144;2023-04-25T05:58:00;6.50;99.90
31733;DHT22;18312;51.486;7.144;2023-04-25T06:00:27;6.50;99.90
31733;DHT22;18312;51.486;7.144;2023-04-25T06:02:54;6.80;99.90
31733;DHT22;18312;51.486;7.144;2023-04-25T06:05:21;6.80;99.90
31733;DHT22;18312;51.486;7.144;2023-04-25T06:07:47;7.20;99.90
31733;DHT22;18312;51.486;7.144;2023-04-25T06:10:14;7.20;99.90
31733;DHT22;18312;51.486;7.144;2023-04-25T06:12:42;7.20;99.90
31733;DHT22;18312;51.486;7.144;2023-04-25T06:15:08;7.30;99.90
31733;DHT22;18312;51.486;7.144;2023-04-25T06:17:35;7.40;99.90
31733;DHT22;18312;51.486;7.144;2023-04-25T06:20:02;7.40;99.90
31733;DHT22;18312;51.486;7.144;2023-04-25T06:22:29;7.40;99.90
31733;DHT22;18312;51.486;7.144;2023-04-25T06:24:56;7.30;99.90
31733;DHT22;18312;51.486;7.144;2023-04-25T06:27:24;7.00;99.90
31733;DHT22;18312;51.486;7.144;2023-04-25T06:29:52;7.10;99.90
31733;DHT22;18312;51.486;7.144;2023-04-25T06:32:18;7.30;99.90
31733;DHT22;18312;51.486;7.144;2023-04-25T06:34:45;7.30;99.90
31733;DHT22;18312;51.486;7.144;2023-04-25T06:37:11;7.40;99.90
31733;DHT22;18312;51.486;7.144;2023-04-25T06:39:38;7.40;99.90
31733;DHT22;18312;51.486;7.144;2023-04-25T06:42:04;7.50;99.90
31733;DHT22;18312;51.486;7.144;2023-04-25T06:44:31;7.60;99.90
31733;DHT22;18312;51.486;7.144;2023-04-25T06:46:59;7.90;99.90
31733;DHT22;18312;51.486;7.144;2023-04-25T06:49:25;8.10;99.90
31733;DHT22;18312;51.486;7.144;2023-04-25T06:51:52;8.30;99.90
31733;DHT22;18312;51.486;7.144;2023-04-25T06:54:18;8.10;99.90
31733;DHT22;18312;51.486;7.144;2023-04-25T06:56:45;7.40;99.90
31733;DHT22;18312;51.486;7.144;2023-04-25T06:59:12;7.50;99.90
31733;DHT22;18312;51.486;7.144;2023-04-25T07:01:39;7.40;99.90
31733;DHT22;18312;51.486;7.144;2023-04-25T07:04:06;7.40;99.90
31733;DHT22;18312;51.486;7.144;2023-04-25T07:06:33;7.30;99.90
31733;DHT22;18312;51.486;7.144;2023-04-25T07:09:03;7.10;99.90
31733;DHT22;18312;51.486;7.144;2023-04-25T07:11:29;7.20;99.90
31733;DHT22;18312;51.486;7.144;2023-04-25T07:13:56;7.20;99.90
31733;DHT22;18312;51.486;7.144;2023-04-25T07:16:23;7.40;99.90
31733;DHT22;18312;51.486;7.144;2023-04-25T07:18:49;7.50;99.90
31733;DHT22;18312;51.486;7.144;2023-04-25T07:21:17;7.80;99.90
31733;DHT22;18312;51.486;7.144;2023-04-25T07:23:44;7.80;99.90
31733;DHT22;18312;51.486;7.144;2023-04-25T07:26:10;7.90;99.90
31733;DHT22;18312;51.486;7.144;2023-04-25T07:28:37;8.20;99.90
31733;DHT22;18312;51.486;7.144;2023-04-25T07:31:04;8.30;99.90
31733;DHT22;18312;51.486;7.144;2023-04-25T07:33:30;8.50;99.90
31733;DHT22;18312;51.486;7.144;2023-04-25T07:35:57;8.40;99.90
31733;DHT22;18312;51.486;7.144;2023-04-25T07:38:25;8.70;99.90
31733;DHT22;18312;51.486;7.144;2023-04-25T07:40:52;8.80;99.90
31733;DHT22;18312;51.486;7.144;2023-04-25T07:43:18;9.20;99.90
31733;DHT22;18312;51.486;7.144;2023-04-25T07:45:45;9.10;99.90
31733;DHT22;18312;51.486;7.144;2023-04-25T07:48:13;9.20;99.90
31733;DHT22;18312;51.486;7.144;2023-04-25T07:50:42;8.90;99.90
31733;DHT22;18312;51.486;7.144;2023-04-25T07:53:09;9.90;99.90
31733;DHT22;18312;51.486;7.144;2023-04-25T07:55:37;10.40;99.90
31733;DHT22;18312;51.486;7.144;2023-04-25T07:58:05;11.40;99.90
31733;DHT22;18312;51.486;7.144;2023-04-25T08:00:31;11.90;98.00
31733;DHT22;18312;51.486;7.144;2023-04-25T08:02:58;11.80;99.10
31733;DHT22;18312;51.486;7.144;2023-04-25T08:05:24;10.40;99.20
31733;DHT22;18312;51.486;7.144;2023-04-25T08:07:51;10.10;99.90
31733;DHT22;18312;51.486;7.144;2023-04-25T08:10:17;9.90;99.90
31733;DHT22;18312;51.486;7.144;2023-04-25T08:12:45;10.30;99.90
31733;DHT22;18312;51.486;7.144;2023-04-25T08:15:12;11.50;99.40
31733;DHT22;18312;51.486;7.144;2023-04-25T08:17:39;11.30;97.70
31733;DHT22;18312;51.486;7.144;2023-04-25T08:20:06;12.00;95.70
31733;DHT22;18312;51.486;7.144;2023-04-25T08:22:34;11.90;94.00
31733;DHT22;18312;51.486;7.144;2023-04-25T08:25:00;11.90;95.40
31733;DHT22;18312;51.486;7.144;2023-04-25T08:27:27;11.20;94.60
31733;DHT22;18312;51.486;7.144;2023-04-25T08:29:55;10.80;94.80
31733;DHT22;18312;51.486;7.144;2023-04-25T08:32:21;10.00;95.50
31733;DHT22;18312;51.486;7.144;2023-04-25T08:34:48;9.90;98.00
31733;DHT22;18312;51.486;7.144;2023-04-25T08:37:16;9.90;95.40
31733;DHT22;18312;51.486;7.144;2023-04-25T08:39:44;9.40;96.60
31733;DHT22;18312;51.486;7.144;2023-04-25T08:42:12;9.80;96.10
31733;DHT22;18312;51.486;7.144;2023-04-25T08:44:38;10.00;96.50
31733;DHT22;18312;51.486;7.144;2023-04-25T08:47:06;10.00;95.10
31733;DHT22;18312;51.486;7.144;2023-04-25T08:49:33;10.00;94.00
31733;DHT22;18312;51.486;7.144;2023-04-25T08:52:01;10.30;95.00
31733;DHT22;18312;51.486;7.144;2023-04-25T08:54:27;10.90;92.40
31733;DHT22;18312;51.486;7.144;2023-04-25T08:56:56;11.40;90.80
31733;DHT22;18312;51.486;7.144;2023-04-25T08:59:23;12.10;91.20
31733;DHT22;18312;51.486;7.144;2023-04-25T09:01:50;12.80;88.10
31733;DHT22;18312;51.486;7.144;2023-04-25T09:04:18;13.30;87.60
31733;DHT22;18312;51.486;7.144;2023-04-25T09:06:45;12.50;88.10
31733;DHT22;18312;51.486;7.144;2023-04-25T09:09:12;11.90;88.20
31733;DHT22;18312;51.486;7.144;2023-04-25T09:11:39;12.10;85.20
31733;DHT22;18312;51.486;7.144;2023-04-25T09:14:13;12.30;85.90
31733;DHT22;18312;51.486;7.144;2023-04-25T09:19:27;13.20;81.70
31733;DHT22;18312;51.486;7.144;2023-04-25T09:21:54;11.50;81.70
31733;DHT22;18312;51.486;7.144;2023-04-25T09:24:29;11.30;86.50
31733;DHT22;18312;51.486;7.144;2023-04-25T09:26:57;11.60;86.60
31733;DHT22;18312;51.486;7.144;2023-04-25T09:29:28;10.90;87.50
31733;DHT22;18312;51.486;7.144;2023-04-25T09:32:03;11.10;90.70
31733;DHT22;18312;51.486;7.144;2023-04-25T09:34:40;11.10;86.70
31733;DHT22;18312;51.486;7.144;2023-04-25T09:37:08;11.50;87.30
31733;DHT22;18312;51.486;7.144;2023-04-25T09:39:34;12.00;82.80
31733;DHT22;18312;51.486;7.144;2023-04-25T09:42:02;11.50;82.30
31733;DHT22;18312;51.486;7.144;2023-04-25T09:44:28;11.20;81.50
31733;DHT22;18312;51.486;7.144;2023-04-25T09:46:55;11.80;79.20
31733;DHT22;18312;51.486;7.144;2023-04-25T09:49:22;11.80;78.70
31733;DHT22;18312;51.486;7.144;2023-04-25T09:51:56;11.10;73.00
31733;DHT22;18312;51.486;7.144;2023-04-25T09:54:23;11.10;75.40
31733;DHT22;18312;51.486;7.144;2023-04-25T09:56:51;12.00;75.00
31733;DHT22;18312;51.486;7.144;2023-04-25T09:59:18;11.50;73.40
31733;DHT22;18312;51.486;7.144;2023-04-25T10:01:46;11.50;75.40
31733;DHT22;18312;51.486;7.144;2023-04-25T10:04:13;11.80;75.10
31733;DHT22;18312;51.486;7.144;2023-04-25T10:06:42;12.10;78.10
31733;DHT22;18312;51.486;7.144;2023-04-25T10:09:10;11.90;74.40
31733;DHT22;18312;51.486;7.144;2023-04-25T10:11:38;12.50;77.10
31733;DHT22;18312;51.486;7.144;2023-04-25T10:14:04;12.40;72.20
31733;DHT22;18312;51.486;7.144;2023-04-25T10:16:31;12.70;76.20
31733;DHT22;18312;51.486;7.144;2023-04-25T10:18:58;12.00;75.00
31733;DHT22;18312;51.486;7.144;2023-04-25T10:21:25;11.70;77.10
31733;DHT22;18312;51.486;7.144;2023-04-25T10:23:53;11.20;76.80
31733;DHT22;18312;51.486;7.144;2023-04-25T10:26:22;11.10;76.80
31733;DHT22;18312;51.486;7.144;2023-04-25T10:28:56;10.80;77.20
31733;DHT22;18312;51.486;7.144;2023-04-25T10:31:23;10.60;76.20
31733;DHT22;18312;51.486;7.144;2023-04-25T10:33:50;10.40;77.60
31733;DHT22;18312;51.486;7.144;2023-04-25T10:36:17;10.20;78.70
31733;DHT22;18312;51.486;7.144;2023-04-25T10:38:44;10.30;79.60
31733;DHT22;18312;51.486;7.144;2023-04-25T10:41:11;10.50;78.60
31733;DHT22;18312;51.486;7.144;2023-04-25T10:43:40;10.90;80.60
31733;DHT22;18312;51.486;7.144;2023-04-25T10:46:13;10.90;84.00
31733;DHT22;18312;51.486;7.144;2023-04-25T10:48:43;10.80;80.10
31733;DHT22;18312;51.486;7.144;2023-04-25T10:51:11;10.70;81.10
31733;DHT22;18312;51.486;7.144;2023-04-25T10:53:38;10.30;78.50
31733;DHT22;18312;51.486;7.144;2023-04-25T10:56:09;9.90;81.40
31733;DHT22;18312;51.486;7.144;2023-04-25T10:58:35;9.50;82.60
31733;DHT22;18312;51.486;7.144;2023-04-25T11:01:03;9.50;87.00
31733;DHT22;18312;51.486;7.144;2023-04-25T11:03:30;9.20;90.30
31733;DHT22;18312;51.486;7.144;2023-04-25T11:05:57;8.90;91.70
31733;DHT22;18312;51.486;7.144;2023-04-25T11:08:28;8.90;91.80
31733;DHT22;18312;51.486;7.144;2023-04-25T11:10:59;8.90;92.90
31733;DHT22;18312;51.486;7.144;2023-04-25T11:13:28;8.50;93.80
31733;DHT22;18312;51.486;7.144;2023-04-25T11:15:55;8.70;94.60
31733;DHT22;18312;51.486;7.144;2023-04-25T11:18:25;8.50;98.00
31733;DHT22;18312;51.486;7.144;2023-04-25T11:21:05;8.20;97.90
31733;DHT22;18312;51.486;7.144;2023-04-25T11:23:32;8.40;99.60
31733;DHT22;18312;51.486;7.144;2023-04-25T11:25:58;8.60;99.30
31733;DHT22;18312;51.486;7.144;2023-04-25T11:28:26;8.90;99.80
31733;DHT22;18312;51.486;7.144;2023-04-25T11:30:53;9.30;99.00
31733;DHT22;18312;51.486;7.144;2023-04-25T11:33:23;9.20;98.90
31733;DHT22;18312;51.486;7.144;2023-04-25T11:35:51;9.50;97.00
31733;DHT22;18312;51.486;7.144;2023-04-25T11:38:19;9.80;96.00
31733;DHT22;18312;51.486;7.144;2023-04-25T11:40:49;9.60;93.40
31733;DHT22;18312;51.486;7.144;2023-04-25T11:43:15;10.00;94.60
31733;DHT22;18312;51.486;7.144;2023-04-25T11:45:45;10.60;94.70
31733;DHT22;18312;51.486;7.144;2023-04-25T11:48:12;11.00;91.80
31733;DHT22;18312;51.486;7.144;2023-04-25T11:50:40;11.10;92.00
31733;DHT22;18312;51.486;7.144;2023-04-25T11:53:06;10.60;91.20
31733;DHT22;18312;51.486;7.144;2023-04-25T11:55:33;11.20;89.50
31733;DHT22;18312;51.486;7.144;2023-04-25T11:58:01;11.50;91.50
31733;DHT22;18312;51.486;7.144;2023-04-25T12:00:29;11.40;82.70
31733;DHT22;18312;51.486;7.144;2023-04-25T12:02:56;11.60;79.30
31733;DHT22;18312;51.486;7.144;2023-04-25T12:05:24;11.30;77.50
31733;DHT22;18312;51.486;7.144;2023-04-25T12:07:52;11.50;76.10
31733;DHT22;18312;51.486;7.144;2023-04-25T12:10:19;11.70;75.20
31733;DHT22;18312;51.486;7.144;2023-04-25T12:12:47;11.60;76.60
31733;DHT22;18312;51.486;7.144;2023-04-25T12:15:15;11.30;75.00
31733;DHT22;18312;51.486;7.144;2023-04-25T12:17:44;11.20;77.20
31733;DHT22;18312;51.486;7.144;2023-04-25T12:20:12;10.90;76.30
31733;DHT22;18312;51.486;7.144;2023-04-25T12:22:40;10.70;78.10
31733;DHT22;18312;51.486;7.144;2023-04-25T12:25:11;11.10;78.20
31733;DHT22;18312;51.486;7.144;2023-04-25T12:27:38;11.50;78.60
31733;DHT22;18312;51.486;7.144;2023-04-25T12:30:07;12.30;76.00
31733;DHT22;18312;51.486;7.144;2023-04-25T12:32:34;12.50;75.90
31733;DHT22;18312;51.486;7.144;2023-04-25T12:35:01;12.40;74.00
31733;DHT22;18312;51.486;7.144;2023-04-25T12:37:28;12.40;76.60
31733;DHT22;18312;51.486;7.144;2023-04-25T12:39:55;11.60;74.50
31733;DHT22;18312;51.486;7.144;2023-04-25T12:42:23;11.50;74.70
31733;DHT22;18312;51.486;7.144;2023-04-25T12:44:49;11.50;76.40
31733;DHT22;18312;51.486;7.144;2023-04-25T12:47:16;11.70;76.90
31733;DHT22;18312;51.486;7.144;2023-04-25T12:49:42;11.50;76.10
31733;DHT22;18312;51.486;7.144;2023-04-25T12:52:09;11.00;74.50
31733;DHT22;18312;51.486;7.144;2023-04-25T12:54:36;10.90;76.30
31733;DHT22;18312;51.486;7.144;2023-04-25T12:57:02;10.90;78.60
31733;DHT22;18312;51.486;7.144;2023-04-25T12:59:30;10.70;80.80
31733;DHT22;18312;51.486;7.144;2023-04-25T13:01:57;10.40;79.20
31733;DHT22;18312;51.486;7.144;2023-04-25T13:04:23;10.30;79.20
31733;DHT22;18312;51.486;7.144;2023-04-25T13:06:50;10.10;80.70
31733;DHT22;18312;51.486;7.144;2023-04-25T13:09:17;10.00;82.30
31733;DHT22;18312;51.486;7.144;2023-04-25T13:11:43;9.80;87.60
31733;DHT22;18312;51.486;7.144;2023-04-25T13:14:11;9.50;89.70
31733;DHT22;18312;51.486;7.144;2023-04-25T13:16:39;9.70;90.60
31733;DHT22;18312;51.486;7.144;2023-04-25T13:19:06;10.00;92.60
31733;DHT22;18312;51.486;7.144;2023-04-25T13:21:36;10.40;92.50
31733;DHT22;18312;51.486;7.144;2023-04-25T13:24:03;10.20;88.90
31733;DHT22;18312;51.486;7.144;2023-04-25T13:26:29;10.30;91.10
31733;DHT22;18312;51.486;7.144;2023-04-25T13:28:57;9.90;87.20
31733;DHT22;18312;51.486;7.144;2023-04-25T13:31:25;10.00;88.50
31733;DHT22;18312;51.486;7.144;2023-04-25T13:33:54;9.90;87.20
31733;DHT22;18312;51.486;7.144;2023-04-25T13:36:21;9.60;88.50
31733;DHT22;18312;51.486;7.144;2023-04-25T13:38:48;9.70;87.70
31733;DHT22;18312;51.486;7.144;2023-04-25T13:41:15;9.90;88.60
31733;DHT22;18312;51.486;7.144;2023-04-25T13:43:44;9.90;87.40
31733;DHT22;18312;51.486;7.144;2023-04-25T13:46:12;10.40;89.60
31733;DHT22;18312;51.486;7.144;2023-04-25T13:48:40;10.60;87.10
31733;DHT22;18312;51.486;7.144;2023-04-25T13:51:16;11.20;84.70
31733;DHT22;18312;51.486;7.144;2023-04-25T13:53:43;11.70;83.20
31733;DHT22;18312;51.486;7.144;2023-04-25T13:56:10;11.60;78.70
31733;DHT22;18312;51.486;7.144;2023-04-25T13:58:38;12.00;79.80
31733;DHT22;18312;51.486;7.144;2023-04-25T14:01:05;12.50;77.50
31733;DHT22;18312;51.486;7.144;2023-04-25T14:03:32;13.10;78.00
31733;DHT22;18312;51.486;7.144;2023-04-25T14:05:58;13.20;75.40
31733;DHT22;18312;51.486;7.144;2023-04-25T14:08:27;13.20;75.50
31733;DHT22;18312;51.486;7.144;2023-04-25T14:10:53;13.20;73.10
31733;DHT22;18312;51.486;7.144;2023-04-25T14:13:20;13.20;73.90
31733;DHT22;18312;51.486;7.144;2023-04-25T14:15:48;13.00;71.70
31733;DHT22;18312;51.486;7.144;2023-04-25T14:18:15;12.50;70.50
31733;DHT22;18312;51.486;7.144;2023-04-25T14:20:42;12.50;73.50
31733;DHT22;18312;51.486;7.144;2023-04-25T14:23:08;11.90;75.00
31733;DHT22;18312;51.486;7.144;2023-04-25T14:25:36;12.60;75.00
31733;DHT22;18312;51.486;7.144;2023-04-25T14:28:03;12.80;70.90
31733;DHT22;18312;51.486;7.144;2023-04-25T14:30:30;12.50;68.20
31733;DHT22;18312;51.486;7.144;2023-04-25T14:32:56;12.50;68.20
31733;DHT22;18312;51.486;7.144;2023-04-25T14:35:23;13.20;66.50
31733;DHT22;18312;51.486;7.144;2023-04-25T14:37:52;13.40;65.90
31733;DHT22;18312;51.486;7.144;2023-04-25T14:40:23;13.30;65.20
31733;DHT22;18312;51.486;7.144;2023-04-25T14:42:50;13.70;66.80
31733;DHT22;18312;51.486;7.144;2023-04-25T14:45:17;13.40;64.00
31733;DHT22;18312;51.486;7.144;2023-04-25T14:47:44;12.60;63.10
31733;DHT22;18312;51.486;7.144;2023-04-25T14:50:11;12.60;63.70
31733;DHT22;18312;51.486;7.144;2023-04-25T14:52:37;12.30;64.20
31733;DHT22;18312;51.486;7.144;2023-04-25T14:55:04;12.40;64.60
31733;DHT22;18312;51.486;7.144;2023-04-25T14:57:31;11.90;63.80
31733;DHT22;18312;51.486;7.144;2023-04-25T14:59:59;12.00;66.40
31733;DHT22;18312;51.486;7.144;2023-04-25T15:02:26;11.80;69.30
31733;DHT22;18312;51.486;7.144;2023-04-25T15:04:53;11.80;72.80
31733;DHT22;18312;51.486;7.144;2023-04-25T15:07:21;11.40;74.60
31733;DHT22;18312;51.486;7.144;2023-04-25T15:09:48;11.00;76.10
31733;DHT22;18312;51.486;7.144;2023-04-25T15:12:14;10.90;76.70
31733;DHT22;18312;51.486;7.144;2023-04-25T15:14:41;11.30;77.20
31733;DHT22;18312;51.486;7.144;2023-04-25T15:17:09;12.00;76.80
31733;DHT22;18312;51.486;7.144;2023-04-25T15:19:39;12.00;75.10
31733;DHT22;18312;51.486;7.144;2023-04-25T15:22:06;12.40;74.80
31733;DHT22;18312;51.486;7.144;2023-04-25T15:24:34;12.60;71.60
31733;DHT22;18312;51.486;7.144;2023-04-25T15:27:05;12.40;69.10
31733;DHT22;18312;51.486;7.144;2023-04-25T15:29:33;12.70;69.50
31733;DHT22;18312;51.486;7.144;2023-04-25T15:32:01;13.40;69.50
31733;DHT22;18312;51.486;7.144;2023-04-25T15:34:33;15.00;67.60
31733;DHT22;18312;51.486;7.144;2023-04-25T15:37:03;16.00;64.50
31733;DHT22;18312;51.486;7.144;2023-04-25T15:39:30;14.90;60.20
31733;DHT22;18312;51.486;7.144;2023-04-25T15:42:03;16.10;64.00